createdAt,value
2022-12-29T00:00:26.390Z,56.07
2022-12-29T00:01:47.264Z,57.35
2022-12-29T00:02:47.608Z,58.06
2022-12-29T00:03:48.428Z,59.20
2022-12-29T00:04:51.672Z,59.56
2022-12-29T00:05:56.274Z,59.47
2022-12-29T00:06:56.852Z,60.68
2022-12-29T00:07:57.211Z,61.20
2022-12-29T00:08:57.522Z,61.53
2022-12-29T00:11:51.241Z,62.57
2022-12-29T00:13:11.668Z,63.33
2022-12-29T00:14:32.597Z,63.97
2022-12-29T00:15:39.494Z,62.25
2022-12-29T00:16:45.816Z,60.08
2022-12-29T00:17:47.475Z,58.14
2022-12-29T00:18:49.503Z,56.65
2022-12-29T00:20:10.258Z,56.00
2022-12-29T00:21:35.565Z,56.59
2022-12-29T00:22:55.950Z,57.62
2022-12-29T00:24:16.326Z,58.77
2022-12-29T00:26:04.939Z,59.37
2022-12-29T00:27:26.087Z,60.00
2022-12-29T00:28:46.997Z,61.26
2022-12-29T00:30:08.096Z,62.03
2022-12-29T00:31:31.231Z,62.58
2022-12-29T00:32:53.657Z,63.54
2022-12-29T00:34:14.635Z,63.24
2022-12-29T00:35:25.170Z,62.10
2022-12-29T00:36:32.906Z,60.77
2022-12-29T00:37:55.471Z,57.83
2022-12-29T00:39:19.471Z,55.89
2022-12-29T00:40:40.013Z,55.52
2022-12-29T00:42:00.717Z,55.70
2022-12-29T00:43:21.369Z,57.05
2022-12-29T00:44:23.564Z,57.88
2022-12-29T00:45:25.382Z,58.56
2022-12-29T00:46:27.246Z,59.41
2022-12-29T00:47:29.452Z,59.96
2022-12-29T00:48:49.920Z,60.13
2022-12-29T00:49:51.917Z,61.51
2022-12-29T00:50:57.019Z,61.53
2022-12-29T00:52:09.744Z,61.92
2022-12-29T00:53:11.502Z,62.17
2022-12-29T00:54:13.535Z,63.32
2022-12-29T00:55:15.950Z,63.88
2022-12-29T00:56:18.214Z,64.54
2022-12-29T00:57:20.444Z,64.34
2022-12-29T00:58:22.142Z,63.06
2022-12-29T00:59:25.195Z,61.49
2022-12-29T01:00:26.944Z,58.76
2022-12-29T01:01:28.787Z,56.80
2022-12-29T01:02:31.790Z,55.48
2022-12-29T01:03:34.925Z,55.60
2022-12-29T01:04:36.759Z,55.98
2022-12-29T01:05:38.529Z,56.96
2022-12-29T01:06:42.558Z,57.67
2022-12-29T01:07:44.305Z,58.02
2022-12-29T01:08:46.058Z,59.12
2022-12-29T01:10:07.873Z,59.93
2022-12-29T01:11:12.411Z,60.41
2022-12-29T01:12:14.369Z,61.42
2022-12-29T01:13:16.604Z,61.88
2022-12-29T01:14:19.684Z,61.96
2022-12-29T01:15:21.409Z,62.42
2022-12-29T01:16:24.004Z,63.32
2022-12-29T01:17:25.670Z,64.00
2022-12-29T01:18:28.241Z,64.42
2022-12-29T01:19:29.918Z,63.52
2022-12-29T01:20:31.662Z,62.39
2022-12-29T01:21:33.940Z,60.65
2022-12-29T01:22:35.624Z,58.39
2022-12-29T01:23:37.319Z,56.14
2022-12-29T01:24:41.765Z,55.18
2022-12-29T01:25:43.634Z,55.07
2022-12-29T01:26:46.688Z,56.15
2022-12-29T01:27:48.430Z,56.68
2022-12-29T01:28:50.219Z,57.60
2022-12-29T01:29:52.102Z,57.95
2022-12-29T01:30:53.812Z,58.47
2022-12-29T01:31:55.529Z,58.91
2022-12-29T01:32:58.434Z,59.68
2022-12-29T01:34:00.292Z,60.50
2022-12-29T01:35:02.221Z,60.60
2022-12-29T01:36:05.541Z,61.03
2022-12-29T01:37:07.391Z,61.58
2022-12-29T01:38:09.337Z,62.43
2022-12-29T01:39:11.108Z,63.17
2022-12-29T01:40:13.207Z,63.65
2022-12-29T01:41:16.877Z,63.18
2022-12-29T01:42:20.944Z,62.32
2022-12-29T01:43:22.852Z,59.13
2022-12-29T01:44:43.652Z,58.27
2022-12-29T01:45:50.446Z,56.86
2022-12-29T01:46:52.513Z,56.70
2022-12-29T01:48:01.397Z,57.09
2022-12-29T01:49:12.836Z,57.45
2022-12-29T01:50:23.565Z,58.01
2022-12-29T01:51:27.398Z,58.65
2022-12-29T01:52:35.555Z,59.71
2022-12-29T01:53:48.029Z,60.58
2022-12-29T01:54:54.581Z,61.31
2022-12-29T01:56:02.031Z,61.47
2022-12-29T01:57:07.217Z,61.65
2022-12-29T01:58:12.223Z,61.98
2022-12-29T01:59:21.227Z,63.14
2022-12-29T02:00:23.238Z,64.30
2022-12-29T02:01:25.240Z,63.94
2022-12-29T02:02:32.453Z,63.28
2022-12-29T02:03:37.204Z,62.15
2022-12-29T02:04:45.353Z,60.69
2022-12-29T02:05:58.853Z,59.02
2022-12-29T02:07:04.183Z,56.74
2022-12-29T02:08:06.624Z,55.41
2022-12-29T02:09:09.823Z,55.13
2022-12-29T02:10:11.603Z,55.94
2022-12-29T02:11:13.964Z,56.30
2022-12-29T02:12:16.957Z,57.30
2022-12-29T02:13:19.763Z,57.98
2022-12-29T02:14:21.519Z,58.29
2022-12-29T02:15:36.876Z,59.28
2022-12-29T02:16:51.614Z,59.75
2022-12-29T02:18:12.192Z,60.12
2022-12-29T02:19:17.366Z,60.93
2022-12-29T02:20:25.575Z,61.17
2022-12-29T02:21:53.580Z,61.48
2022-12-29T02:23:14.191Z,62.34
2022-12-29T02:24:36.547Z,62.89
2022-12-29T02:25:57.125Z,63.74
2022-12-29T02:26:58.775Z,63.15
2022-12-29T02:28:09.531Z,61.86
2022-12-29T02:29:26.841Z,61.37
2022-12-29T02:30:34.642Z,59.20
2022-12-29T02:31:42.518Z,56.26
2022-12-29T02:33:03.178Z,54.93
2022-12-29T02:34:16.052Z,55.20
2022-12-29T02:35:33.553Z,55.37
2022-12-29T02:36:54.648Z,56.27
2022-12-29T02:38:08.688Z,57.31
2022-12-29T02:39:29.331Z,58.06
2022-12-29T02:40:43.421Z,58.76
2022-12-29T02:42:06.596Z,59.47
2022-12-29T02:43:17.320Z,60.15
2022-12-29T02:44:29.396Z,60.60
2022-12-29T02:45:49.687Z,61.09
2022-12-29T02:47:04.857Z,61.56
2022-12-29T02:48:15.810Z,61.82
2022-12-29T02:49:28.686Z,62.64
2022-12-29T02:50:36.545Z,63.84
2022-12-29T02:51:58.687Z,64.70
2022-12-29T02:53:03.051Z,63.97
2022-12-29T02:54:23.535Z,63.07
2022-12-29T02:55:25.452Z,61.32
2022-12-29T02:56:27.359Z,58.53
2022-12-29T02:57:34.459Z,56.11
2022-12-29T02:58:36.722Z,55.08
2022-12-29T02:59:38.678Z,54.96
2022-12-29T03:00:50.192Z,55.47
2022-12-29T03:02:18.065Z,55.98
2022-12-29T03:03:26.475Z,56.99
2022-12-29T03:04:44.397Z,57.37
2022-12-29T03:05:54.947Z,58.54
2022-12-29T03:06:57.121Z,59.39
2022-12-29T03:08:18.787Z,59.93
2022-12-29T03:09:36.577Z,60.38
2022-12-29T03:11:02.149Z,60.89
2022-12-29T03:12:22.436Z,61.34
2022-12-29T03:13:42.978Z,61.91
2022-12-29T03:15:17.449Z,62.07
2022-12-29T03:16:35.932Z,62.70
2022-12-29T03:17:52.839Z,63.79
2022-12-29T03:18:54.443Z,63.57
2022-12-29T03:20:02.920Z,62.55
2022-12-29T03:21:17.215Z,61.63
2022-12-29T03:22:27.962Z,60.13
2022-12-29T03:23:36.139Z,57.72
2022-12-29T03:24:42.000Z,55.78
2022-12-29T03:25:55.274Z,54.59
2022-12-29T03:26:59.909Z,54.61
2022-12-29T03:28:08.884Z,54.88
2022-12-29T03:29:17.023Z,56.01
2022-12-29T03:30:20.280Z,57.01
2022-12-29T03:31:24.909Z,57.77
2022-12-29T03:32:33.418Z,58.51
2022-12-29T03:33:37.444Z,58.92
2022-12-29T03:34:39.949Z,59.49
2022-12-29T03:35:44.138Z,59.78
2022-12-29T03:37:02.011Z,60.71
2022-12-29T03:38:20.953Z,61.23
2022-12-29T03:39:24.901Z,61.50
2022-12-29T03:40:29.214Z,62.30
2022-12-29T03:41:33.104Z,62.73
2022-12-29T03:42:38.273Z,63.77
2022-12-29T03:43:40.207Z,64.40
2022-12-29T03:44:44.381Z,64.12
2022-12-29T03:45:47.961Z,62.67
2022-12-29T03:46:49.634Z,60.91
2022-12-29T03:47:53.579Z,58.94
2022-12-29T03:48:55.812Z,57.14
2022-12-29T03:49:59.016Z,55.70
2022-12-29T03:51:01.166Z,55.54
2022-12-29T03:52:03.278Z,55.79
2022-12-29T03:53:06.461Z,56.09
2022-12-29T03:54:08.423Z,56.81
2022-12-29T03:55:10.828Z,57.89
2022-12-29T03:56:13.518Z,58.76
2022-12-29T03:57:16.058Z,58.98
2022-12-29T03:58:30.606Z,59.35
2022-12-29T03:59:45.442Z,59.93
2022-12-29T04:00:47.243Z,60.53
2022-12-29T04:01:49.165Z,60.77
2022-12-29T04:02:51.283Z,61.13
2022-12-29T04:03:56.009Z,61.89
2022-12-29T04:04:57.917Z,62.16
2022-12-29T04:05:59.611Z,62.44
2022-12-29T04:07:03.151Z,63.22
2022-12-29T04:08:05.417Z,64.12
2022-12-29T04:09:07.771Z,64.56
2022-12-29T04:10:15.192Z,63.38
2022-12-29T04:11:20.220Z,61.94
2022-12-29T04:12:21.864Z,60.16
2022-12-29T04:13:23.620Z,58.83
2022-12-29T04:14:27.244Z,55.94
2022-12-29T04:15:29.221Z,54.54
2022-12-29T04:16:31.179Z,54.56
2022-12-29T04:17:33.132Z,54.65
2022-12-29T04:18:35.888Z,55.20
2022-12-29T04:19:37.624Z,55.88
2022-12-29T04:20:58.237Z,56.54
2022-12-29T04:22:00.040Z,57.41
2022-12-29T04:23:03.213Z,57.85
2022-12-29T04:24:07.610Z,58.36
2022-12-29T04:25:13.253Z,58.95
2022-12-29T04:26:15.177Z,59.59
2022-12-29T04:27:32.957Z,60.18
2022-12-29T04:28:57.922Z,60.66
2022-12-29T04:30:26.993Z,61.32
2022-12-29T04:31:39.667Z,61.61
2022-12-29T04:32:42.264Z,61.78
2022-12-29T04:33:44.290Z,62.11
2022-12-29T04:34:46.069Z,62.65
2022-12-29T04:35:48.177Z,63.51
2022-12-29T04:36:50.077Z,64.26
2022-12-29T04:37:52.509Z,64.25
2022-12-29T04:38:54.179Z,63.06
2022-12-29T04:39:55.887Z,61.68
2022-12-29T04:41:00.341Z,60.13
2022-12-29T04:42:02.587Z,58.18
2022-12-29T04:43:04.927Z,55.61
2022-12-29T04:44:10.602Z,54.45
2022-12-29T04:45:30.976Z,54.33
2022-12-29T04:46:44.331Z,55.24
2022-12-29T04:48:08.554Z,55.87
2022-12-29T04:49:19.976Z,56.63
2022-12-29T04:50:41.334Z,57.47
2022-12-29T04:51:50.776Z,58.34
2022-12-29T04:52:53.457Z,58.79
2022-12-29T04:53:56.472Z,59.13
2022-12-29T04:54:59.064Z,60.20
2022-12-29T04:56:00.822Z,60.46
2022-12-29T04:57:03.189Z,61.04
2022-12-29T04:58:05.073Z,61.33
2022-12-29T04:59:08.636Z,61.40
2022-12-29T05:00:11.095Z,61.64
2022-12-29T05:01:13.080Z,62.15
2022-12-29T05:02:17.157Z,63.08
2022-12-29T05:03:22.417Z,63.85
2022-12-29T05:04:25.279Z,63.58
2022-12-29T05:05:28.870Z,62.93
2022-12-29T05:06:31.606Z,62.08
2022-12-29T05:07:34.654Z,60.17
2022-12-29T05:08:36.914Z,58.11
2022-12-29T05:09:38.712Z,55.59
2022-12-29T05:10:41.021Z,55.05
2022-12-29T05:11:46.992Z,55.45
2022-12-29T05:12:49.494Z,55.82
2022-12-29T05:13:51.202Z,56.75
2022-12-29T05:14:52.977Z,57.70
2022-12-29T05:15:55.114Z,58.02
2022-12-29T05:17:36.486Z,58.29
2022-12-29T05:18:56.863Z,59.22
2022-12-29T05:19:58.885Z,60.11
2022-12-29T05:21:00.798Z,60.39
2022-12-29T05:22:03.609Z,60.41
2022-12-29T05:23:06.002Z,60.98
2022-12-29T05:24:08.115Z,61.72
2022-12-29T05:25:10.303Z,62.38
2022-12-29T05:26:25.161Z,62.94
2022-12-29T05:27:42.782Z,64.31
2022-12-29T05:28:53.319Z,63.90
2022-12-29T05:29:55.822Z,62.94
2022-12-29T05:30:57.783Z,61.34
2022-12-29T05:32:00.211Z,59.18
2022-12-29T05:33:02.963Z,56.31
2022-12-29T05:34:05.026Z,54.64
2022-12-29T05:35:07.472Z,54.37
2022-12-29T05:36:10.934Z,54.74
2022-12-29T05:37:16.735Z,55.57
2022-12-29T05:38:20.221Z,55.95
2022-12-29T05:39:21.892Z,56.79
2022-12-29T05:40:28.859Z,57.49
2022-12-29T05:41:34.605Z,58.10
2022-12-29T05:42:42.468Z,59.00
2022-12-29T05:44:07.781Z,59.82
2022-12-29T05:45:19.446Z,59.90
2022-12-29T05:46:59.761Z,60.51
2022-12-29T05:48:45.122Z,61.19
2022-12-29T05:49:59.847Z,61.74
2022-12-29T05:51:07.538Z,62.11
2022-12-29T05:52:52.240Z,63.49
2022-12-29T05:53:54.726Z,64.35
2022-12-29T05:54:57.504Z,63.98
2022-12-29T05:56:01.149Z,61.23
2022-12-29T05:57:03.617Z,59.14
2022-12-29T05:58:06.087Z,57.33
2022-12-29T05:59:07.885Z,56.11
2022-12-29T06:00:10.382Z,55.86
2022-12-29T06:01:18.574Z,56.27
2022-12-29T06:02:20.719Z,56.61
2022-12-29T06:03:23.286Z,57.00
2022-12-29T06:04:27.249Z,57.91
2022-12-29T06:05:29.369Z,58.36
2022-12-29T06:06:31.159Z,58.71
2022-12-29T06:07:33.515Z,59.52
2022-12-29T06:08:35.472Z,60.27
2022-12-29T06:09:37.303Z,60.35
2022-12-29T06:10:40.153Z,60.49
2022-12-29T06:11:44.364Z,60.94
2022-12-29T06:12:46.530Z,61.59
2022-12-29T06:13:49.795Z,61.49
2022-12-29T06:14:52.383Z,61.66
2022-12-29T06:15:54.257Z,62.15
2022-12-29T06:16:56.864Z,62.47
2022-12-29T06:17:59.541Z,63.27
2022-12-29T06:19:01.467Z,63.72
2022-12-29T06:20:04.243Z,61.73
2022-12-29T06:21:06.224Z,60.85
2022-12-29T06:22:08.619Z,58.21
2022-12-29T06:23:13.137Z,57.02
2022-12-29T06:24:15.126Z,55.58
2022-12-29T06:25:17.723Z,55.08
2022-12-29T06:26:19.996Z,55.26
2022-12-29T06:27:23.869Z,55.50
2022-12-29T06:28:27.495Z,56.13
2022-12-29T06:29:29.545Z,57.03
2022-12-29T06:30:33.620Z,57.54
2022-12-29T06:31:37.352Z,58.25
2022-12-29T06:32:40.979Z,58.52
2022-12-29T06:33:49.696Z,59.43
2022-12-29T06:34:52.355Z,59.62
2022-12-29T06:35:54.247Z,60.21
2022-12-29T06:36:56.112Z,60.76
2022-12-29T06:37:58.600Z,60.68
2022-12-29T06:39:00.417Z,60.62
2022-12-29T06:40:02.842Z,61.05
2022-12-29T06:41:16.820Z,61.33
2022-12-29T06:42:38.440Z,61.98
2022-12-29T06:44:06.446Z,62.17
2022-12-29T06:45:26.847Z,62.41
2022-12-29T06:46:28.737Z,62.78
2022-12-29T06:47:30.831Z,63.43
2022-12-29T06:48:32.752Z,63.33
2022-12-29T06:49:34.767Z,61.87
2022-12-29T06:50:36.715Z,58.95
2022-12-29T06:51:38.568Z,57.49
2022-12-29T06:52:40.347Z,56.29
2022-12-29T06:53:42.307Z,56.06
2022-12-29T06:54:44.042Z,56.22
2022-12-29T06:55:45.782Z,56.84
2022-12-29T06:56:47.570Z,57.52
2022-12-29T06:57:49.349Z,57.97
2022-12-29T06:58:51.175Z,58.44
2022-12-29T06:59:53.363Z,58.92
2022-12-29T07:00:55.344Z,59.23
2022-12-29T07:01:57.268Z,60.06
2022-12-29T07:02:59.652Z,60.36
2022-12-29T07:04:01.737Z,60.34
2022-12-29T07:05:03.535Z,61.04
2022-12-29T07:06:05.741Z,61.19
2022-12-29T07:07:07.666Z,61.36
2022-12-29T07:08:09.561Z,61.64
2022-12-29T07:09:11.841Z,62.12
2022-12-29T07:10:13.740Z,62.21
2022-12-29T07:11:15.612Z,62.24
2022-12-29T07:12:17.487Z,62.53
2022-12-29T07:13:19.290Z,62.91
2022-12-29T07:14:21.443Z,62.65
2022-12-29T07:15:23.340Z,62.81
2022-12-29T07:16:25.283Z,61.09
2022-12-29T07:17:27.200Z,58.17
2022-12-29T07:18:28.951Z,56.45
2022-12-29T07:19:30.773Z,55.07
2022-12-29T07:20:33.433Z,54.92
2022-12-29T07:21:35.275Z,55.41
2022-12-29T07:22:37.469Z,55.96
2022-12-29T07:23:39.237Z,56.56
2022-12-29T07:24:41.824Z,57.22
2022-12-29T07:25:44.041Z,57.97
2022-12-29T07:26:45.793Z,58.33
2022-12-29T07:27:47.844Z,58.83
2022-12-29T07:28:49.726Z,59.33
2022-12-29T07:29:51.542Z,59.59
2022-12-29T07:30:53.369Z,59.68
2022-12-29T07:31:55.244Z,60.04
2022-12-29T07:32:57.696Z,60.57
2022-12-29T07:33:59.434Z,60.68
2022-12-29T07:35:01.347Z,60.76
2022-12-29T07:36:03.633Z,60.86
2022-12-29T07:37:05.608Z,61.05
2022-12-29T07:38:07.405Z,61.22
2022-12-29T07:39:09.533Z,61.45
2022-12-29T07:40:11.659Z,61.71
2022-12-29T07:41:13.887Z,61.79
2022-12-29T07:42:16.039Z,61.81
2022-12-29T07:43:23.978Z,61.72
2022-12-29T07:44:47.955Z,62.17
2022-12-29T07:46:13.253Z,62.04
2022-12-29T07:47:31.978Z,62.22
2022-12-29T07:48:37.190Z,62.31
2022-12-29T07:49:39.050Z,62.29
2022-12-29T07:50:40.857Z,62.18
2022-12-29T07:51:43.192Z,62.12
2022-12-29T07:52:45.900Z,62.37
2022-12-29T07:53:47.813Z,62.48
2022-12-29T07:54:49.606Z,62.65
2022-12-29T07:55:51.468Z,62.56
2022-12-29T07:56:53.670Z,61.48
2022-12-29T07:57:56.206Z,60.70
2022-12-29T07:58:58.006Z,59.77
2022-12-29T08:00:00.247Z,55.80
2022-12-29T08:01:02.022Z,55.01
2022-12-29T08:02:03.778Z,54.44
2022-12-29T08:03:06.483Z,54.76
2022-12-29T08:04:08.562Z,55.48
2022-12-29T08:05:10.367Z,56.19
2022-12-29T08:06:12.187Z,56.68
2022-12-29T08:07:13.796Z,57.28
2022-12-29T08:08:15.742Z,58.00
2022-12-29T08:09:22.334Z,58.41
2022-12-29T08:10:25.916Z,58.94
2022-12-29T08:11:27.618Z,59.40
2022-12-29T08:12:29.416Z,59.51
2022-12-29T08:13:31.177Z,59.86
2022-12-29T08:14:32.879Z,60.30
2022-12-29T08:15:34.575Z,60.46
2022-12-29T08:16:36.870Z,60.51
2022-12-29T08:17:38.817Z,60.71
2022-12-29T08:18:40.602Z,60.87
2022-12-29T08:19:43.789Z,60.82
2022-12-29T08:20:47.015Z,61.05
2022-12-29T08:21:50.501Z,61.55
2022-12-29T08:22:52.325Z,61.55
2022-12-29T08:23:54.100Z,61.81
2022-12-29T08:24:55.814Z,62.06
2022-12-29T08:25:58.241Z,61.84
2022-12-29T08:27:04.537Z,62.01
2022-12-29T08:28:11.115Z,62.31
2022-12-29T08:29:13.016Z,62.57
2022-12-29T08:30:14.876Z,62.72
2022-12-29T08:31:16.820Z,62.68
2022-12-29T08:32:18.971Z,60.71
2022-12-29T08:33:20.641Z,58.65
2022-12-29T08:34:22.736Z,56.88
2022-12-29T08:35:24.315Z,55.65
2022-12-29T08:36:25.913Z,55.62
2022-12-29T08:37:31.242Z,56.17
2022-12-29T08:38:33.936Z,56.89
2022-12-29T08:39:35.700Z,57.35
2022-12-29T08:40:37.284Z,57.94
2022-12-29T08:41:38.956Z,58.56
2022-12-29T08:42:40.977Z,58.82
2022-12-29T08:43:46.610Z,59.19
2022-12-29T08:44:48.894Z,59.30
2022-12-29T08:45:50.745Z,59.80
2022-12-29T08:46:52.545Z,60.01
2022-12-29T08:47:54.366Z,60.30
2022-12-29T08:48:56.142Z,60.10
2022-12-29T08:49:57.881Z,60.27
2022-12-29T08:50:59.503Z,60.84
2022-12-29T08:52:01.130Z,61.12
2022-12-29T08:53:03.080Z,61.09
2022-12-29T08:54:04.834Z,61.12
2022-12-29T08:55:07.750Z,61.12
2022-12-29T08:56:10.336Z,61.32
2022-12-29T08:57:17.537Z,61.52
2022-12-29T08:58:54.965Z,61.72
2022-12-29T08:59:57.341Z,61.67
2022-12-29T09:00:59.266Z,61.83
2022-12-29T09:02:02.765Z,61.83
2022-12-29T09:03:04.947Z,61.85
2022-12-29T09:04:16.644Z,62.05
2022-12-29T09:05:19.418Z,62.23
2022-12-29T09:06:21.770Z,62.18
2022-12-29T09:07:23.779Z,62.09
2022-12-29T09:08:26.271Z,62.26
2022-12-29T09:09:28.161Z,62.41
2022-12-29T09:10:30.514Z,62.27
2022-12-29T09:11:32.168Z,62.18
2022-12-29T09:12:36.642Z,62.13
2022-12-29T09:13:38.919Z,62.07
2022-12-29T09:14:40.818Z,62.15
2022-12-29T09:15:42.830Z,62.35
2022-12-29T09:17:03.187Z,62.33
2022-12-29T09:18:05.555Z,62.20
2022-12-29T09:19:07.417Z,62.14
2022-12-29T09:20:10.002Z,62.16
2022-12-29T09:21:12.615Z,62.13
2022-12-29T09:22:14.607Z,62.25
2022-12-29T09:23:16.411Z,62.13
2022-12-29T09:24:18.234Z,62.04
2022-12-29T09:25:19.911Z,62.09
2022-12-29T09:26:21.569Z,62.06
2022-12-29T09:27:23.378Z,62.01
2022-12-29T09:28:26.674Z,62.00
2022-12-29T09:29:28.332Z,61.97
2022-12-29T09:30:30.125Z,61.89
2022-12-29T09:31:31.971Z,61.72
2022-12-29T09:32:36.821Z,61.69
2022-12-29T09:33:41.009Z,61.64
2022-12-29T09:34:42.688Z,61.62
2022-12-29T09:35:45.990Z,61.54
2022-12-29T09:36:47.770Z,61.39
2022-12-29T09:37:49.392Z,61.25
2022-12-29T09:38:51.105Z,61.05
2022-12-29T09:39:54.694Z,61.00
2022-12-29T09:41:02.207Z,61.11
2022-12-29T09:42:22.872Z,61.17
2022-12-29T09:43:24.793Z,61.19
2022-12-29T09:44:38.545Z,61.17
2022-12-29T09:45:40.246Z,61.19
2022-12-29T09:46:45.969Z,61.08
2022-12-29T09:47:48.097Z,60.84
2022-12-29T09:48:55.273Z,60.82
2022-12-29T09:50:01.173Z,61.02
2022-12-29T09:51:09.358Z,60.99
2022-12-29T09:52:22.994Z,61.03
2022-12-29T09:53:46.485Z,61.18
2022-12-29T09:55:14.174Z,61.03
2022-12-29T09:56:19.645Z,60.52
2022-12-29T09:57:26.111Z,60.49
2022-12-29T09:58:46.439Z,60.70
2022-12-29T10:00:05.343Z,60.58
2022-12-29T10:01:21.723Z,60.43
2022-12-29T10:02:31.021Z,60.51
2022-12-29T10:03:53.197Z,60.63
2022-12-29T10:04:55.147Z,60.73
2022-12-29T10:06:00.414Z,60.82
2022-12-29T10:07:29.244Z,60.62
2022-12-29T10:08:46.572Z,60.60
2022-12-29T10:10:05.413Z,60.56
2022-12-29T10:11:13.487Z,60.62
2022-12-29T10:12:24.320Z,60.50
2022-12-29T10:13:32.321Z,60.62
2022-12-29T10:14:50.093Z,60.74
2022-12-29T10:15:51.783Z,60.68
2022-12-29T10:16:53.414Z,60.60
2022-12-29T10:18:04.206Z,60.59
2022-12-29T10:19:18.227Z,60.57
2022-12-29T10:20:32.574Z,60.47
2022-12-29T10:21:34.110Z,60.37
2022-12-29T10:22:48.286Z,60.49
2022-12-29T10:23:52.578Z,60.54
2022-12-29T10:24:57.013Z,60.38
2022-12-29T10:26:01.009Z,60.29
2022-12-29T10:27:03.980Z,60.42
2022-12-29T10:28:13.897Z,60.40
2022-12-29T10:29:26.713Z,60.37
2022-12-29T10:30:29.845Z,60.49
2022-12-29T10:31:34.334Z,60.44
2022-12-29T10:32:41.093Z,60.41
2022-12-29T10:33:43.751Z,60.47
2022-12-29T10:34:49.443Z,60.45
2022-12-29T10:35:52.008Z,60.56
2022-12-29T10:37:01.063Z,60.61
2022-12-29T10:38:12.074Z,60.55
2022-12-29T10:39:40.079Z,60.54
2022-12-29T10:40:50.509Z,60.45
2022-12-29T10:42:12.496Z,60.32
2022-12-29T10:43:23.681Z,60.41
2022-12-29T10:44:29.653Z,60.25
2022-12-29T10:45:33.555Z,60.24
2022-12-29T10:46:37.718Z,60.15
2022-12-29T10:47:48.938Z,60.00
2022-12-29T10:48:50.740Z,59.89
2022-12-29T10:49:54.894Z,60.02
2022-12-29T10:51:01.916Z,60.12
2022-12-29T10:52:05.374Z,60.18
2022-12-29T10:53:07.453Z,60.17
2022-12-29T10:54:12.065Z,59.93
2022-12-29T10:55:19.711Z,59.97
2022-12-29T10:56:32.029Z,60.14
2022-12-29T10:57:36.633Z,60.21
2022-12-29T10:58:41.680Z,60.20
2022-12-29T10:59:45.616Z,60.00
2022-12-29T11:00:51.861Z,59.88
2022-12-29T11:02:12.925Z,59.93
2022-12-29T11:03:42.693Z,59.88
2022-12-29T11:04:50.021Z,59.70
2022-12-29T11:06:03.684Z,59.69
2022-12-29T11:07:10.557Z,59.86
2022-12-29T11:08:18.298Z,59.78
2022-12-29T11:09:41.501Z,59.90
2022-12-29T11:10:45.431Z,60.05
2022-12-29T11:11:48.080Z,60.20
2022-12-29T11:12:56.143Z,60.30
2022-12-29T11:14:00.360Z,60.14
2022-12-29T11:15:11.030Z,59.94
2022-12-29T11:16:13.501Z,60.10
2022-12-29T11:17:17.201Z,60.21
2022-12-29T11:18:23.818Z,60.27
2022-12-29T11:19:28.023Z,60.33
2022-12-29T11:20:38.584Z,60.24
2022-12-29T11:21:43.142Z,60.12
2022-12-29T11:22:46.094Z,60.17
2022-12-29T11:23:56.754Z,59.97
2022-12-29T11:25:06.864Z,59.89
2022-12-29T11:26:11.603Z,59.95
2022-12-29T11:27:23.648Z,59.92
2022-12-29T11:28:30.399Z,59.94
2022-12-29T11:29:39.528Z,59.85
2022-12-29T11:30:41.119Z,59.90
2022-12-29T11:31:56.996Z,59.98
2022-12-29T11:33:03.538Z,59.93
2022-12-29T11:34:08.428Z,59.98
2022-12-29T11:35:30.187Z,59.87
2022-12-29T11:36:32.142Z,59.69
2022-12-29T11:37:43.667Z,59.70
2022-12-29T11:38:56.243Z,59.64
2022-12-29T11:40:09.029Z,59.53
2022-12-29T11:41:20.340Z,59.64
2022-12-29T11:42:25.191Z,59.63
2022-12-29T11:43:36.756Z,59.61
2022-12-29T11:44:45.278Z,59.61
2022-12-29T11:45:54.957Z,59.57
2022-12-29T11:46:56.863Z,59.41
2022-12-29T11:48:13.604Z,59.36
2022-12-29T11:49:21.135Z,59.41
2022-12-29T11:50:25.996Z,59.38
2022-12-29T11:51:30.642Z,59.53
2022-12-29T11:52:36.213Z,59.43
2022-12-29T11:53:46.730Z,59.39
2022-12-29T11:54:48.650Z,59.46
2022-12-29T11:55:56.868Z,59.55
2022-12-29T11:57:00.678Z,59.65
2022-12-29T11:58:05.475Z,59.81
2022-12-29T11:59:45.896Z,59.83
2022-12-29T12:00:51.079Z,59.74
2022-12-29T12:01:53.765Z,59.72
2022-12-29T12:03:01.419Z,59.75
2022-12-29T12:04:10.987Z,59.80
2022-12-29T12:05:21.688Z,59.76
2022-12-29T12:06:25.219Z,59.77
2022-12-29T12:07:39.839Z,60.03
2022-12-29T12:09:02.032Z,60.13
2022-12-29T12:10:08.019Z,60.11
2022-12-29T12:11:24.469Z,60.16
2022-12-29T12:12:33.169Z,60.17
2022-12-29T12:13:42.106Z,60.10
2022-12-29T12:14:55.405Z,60.14
2022-12-29T12:16:10.592Z,60.11
2022-12-29T12:17:12.429Z,60.15
2022-12-29T12:18:20.098Z,60.14
2022-12-29T12:19:39.859Z,60.26
2022-12-29T12:21:11.290Z,60.29
2022-12-29T12:22:33.372Z,60.11
2022-12-29T12:23:45.133Z,59.92
2022-12-29T12:24:54.493Z,59.99
2022-12-29T12:26:05.073Z,60.21
2022-12-29T12:27:15.271Z,60.39
2022-12-29T12:28:21.775Z,60.51
2022-12-29T12:29:46.599Z,60.50
2022-12-29T12:30:51.395Z,60.52
2022-12-29T12:31:58.659Z,60.39
2022-12-29T12:33:05.478Z,60.42
2022-12-29T12:34:13.576Z,60.56
2022-12-29T12:35:21.706Z,60.49
2022-12-29T12:36:23.773Z,60.55
2022-12-29T12:37:36.480Z,60.66
2022-12-29T12:38:40.935Z,60.57
2022-12-29T12:39:51.171Z,60.47
2022-12-29T12:41:03.126Z,60.50
2022-12-29T12:42:31.333Z,60.54
2022-12-29T12:43:53.532Z,60.51
2022-12-29T12:44:58.176Z,60.50
2022-12-29T12:46:18.602Z,60.51
2022-12-29T12:47:38.924Z,60.52
2022-12-29T12:49:00.913Z,60.43
2022-12-29T12:50:12.551Z,60.25
2022-12-29T12:51:29.480Z,60.25
2022-12-29T12:52:41.914Z,60.30
2022-12-29T12:53:43.987Z,60.35
2022-12-29T12:55:17.172Z,60.44
2022-12-29T12:56:46.957Z,60.40
2022-12-29T12:58:04.825Z,60.50
2022-12-29T12:59:26.485Z,60.51
2022-12-29T13:00:30.000Z,60.32
2022-12-29T13:01:37.777Z,60.15
2022-12-29T13:02:59.384Z,60.27
2022-12-29T13:04:10.066Z,60.29
2022-12-29T13:05:27.047Z,60.26
2022-12-29T13:06:44.222Z,60.31
2022-12-29T13:07:45.870Z,60.49
2022-12-29T13:08:50.556Z,60.62
2022-12-29T13:10:04.780Z,60.65
2022-12-29T13:21:00.498Z,59.29
2022-12-29T13:36:13.044Z,61.75
2022-12-29T13:37:19.937Z,61.89
2022-12-29T13:38:36.516Z,62.04
2022-12-29T13:39:40.320Z,59.98
2022-12-29T13:40:48.199Z,58.21
2022-12-29T13:41:54.311Z,55.94
2022-12-29T13:42:58.560Z,54.90
2022-12-29T13:44:04.599Z,55.00
2022-12-29T13:45:17.231Z,55.27
2022-12-29T13:46:34.621Z,55.54
2022-12-29T13:47:48.410Z,56.26
2022-12-29T13:48:55.638Z,56.72
2022-12-29T13:50:02.209Z,57.41
2022-12-29T13:51:08.823Z,58.20
2022-12-29T13:52:21.005Z,59.56
2022-12-29T13:53:36.063Z,59.22
2022-12-29T13:55:09.270Z,59.38
2022-12-29T13:56:17.040Z,59.74
2022-12-29T13:57:43.521Z,59.77
2022-12-29T13:59:04.602Z,59.95
2022-12-29T14:00:23.089Z,60.15
2022-12-29T14:02:05.982Z,60.36
2022-12-29T14:03:31.347Z,60.59
2022-12-29T14:04:35.988Z,60.77
2022-12-29T14:05:37.907Z,60.86
2022-12-29T14:06:41.687Z,60.96
2022-12-29T14:07:43.803Z,61.07
2022-12-29T14:08:46.614Z,61.20
2022-12-29T14:09:54.315Z,61.29
2022-12-29T14:10:56.269Z,61.40
2022-12-29T14:11:59.395Z,61.48
2022-12-29T14:13:04.540Z,61.52
2022-12-29T14:14:22.542Z,61.59
2022-12-29T14:15:27.003Z,61.63
2022-12-29T14:16:35.689Z,61.73
2022-12-29T14:17:41.286Z,61.82
2022-12-29T14:18:45.695Z,61.86
2022-12-29T14:19:54.106Z,61.91
2022-12-29T14:21:07.877Z,61.97
2022-12-29T14:22:12.003Z,62.06
2022-12-29T14:23:13.735Z,62.08
2022-12-29T14:24:34.007Z,62.06
2022-12-29T14:25:59.110Z,62.09
2022-12-29T14:27:02.197Z,62.12
2022-12-29T14:28:23.342Z,62.13
2022-12-29T14:29:25.092Z,62.23
2022-12-29T14:30:52.317Z,62.26
2022-12-29T14:31:54.215Z,62.34
2022-12-29T14:33:05.034Z,62.40
2022-12-29T14:34:06.767Z,62.46
2022-12-29T14:35:50.459Z,62.45
2022-12-29T14:37:04.168Z,62.65
2022-12-29T14:38:22.559Z,63.05
2022-12-29T14:39:44.385Z,61.99
2022-12-29T14:40:48.943Z,59.80
2022-12-29T14:42:23.594Z,57.57
2022-12-29T14:43:28.472Z,55.30
2022-12-29T14:44:30.637Z,55.20
2022-12-29T14:45:38.445Z,55.54
2022-12-29T14:46:54.940Z,56.10
2022-12-29T14:47:58.022Z,56.77
2022-12-29T14:49:02.247Z,57.26
2022-12-29T14:50:18.711Z,57.74
2022-12-29T14:51:31.992Z,58.29
2022-12-29T14:53:02.928Z,58.77
2022-12-29T14:54:33.929Z,59.24
2022-12-29T14:55:48.368Z,59.66
2022-12-29T14:56:50.335Z,59.97
2022-12-29T14:58:02.981Z,60.21